Time;durP1;ratioP1;P1;durP2;ratioP2;P2;SDS_P1;SDS_P2;PMS_P1;PMS_P2;Temp;Humidity;BMP_temperature;BMP_pressure;BME280_temperature;BME280_humidity;BME280_pressure;Samples;Min_cycle;Max_cycle;Signal;HPM_P1;HPM_P2
2022/11/20 00:02:17;;;;;;;5.60;5.30;;;7.40;99.90;;;;;;4874171;29;20561;-83
2022/11/20 00:04:46;;;;;;;5.30;5.10;;;7.40;99.90;;;;;;4863026;29;20460;-84
2022/11/20 00:07:15;;;;;;;5.67;5.37;;;7.40;99.90;;;;;;4864948;29;20486;-84
2022/11/20 00:09:44;;;;;;;5.43;5.13;;;7.20;99.90;;;;;;4862215;29;20475;-82
2022/11/20 00:12:12;;;;;;;5.50;5.30;;;7.10;99.90;;;;;;4865682;29;20490;-83
2022/11/20 00:14:41;;;;;;;5.30;5.00;;;7.30;99.90;;;;;;4866553;29;20466;-82
2022/11/20 00:17:09;;;;;;;5.17;4.87;;;7.30;99.90;;;;;;4864190;29;20741;-84
2022/11/20 00:19:37;;;;;;;5.00;4.80;;;7.30;99.90;;;;;;4864002;29;20483;-85
2022/11/20 00:22:05;;;;;;;6.40;5.80;;;7.40;99.90;;;;;;4864341;29;20485;-84
2022/11/20 00:24:35;;;;;;;5.60;5.20;;;7.40;99.90;;;;;;4863530;29;20473;-81
2022/11/20 00:27:09;;;;;;;6.17;5.80;;;7.40;99.90;;;;;;4863748;29;20477;-83
2022/11/20 00:29:38;;;;;;;6.50;6.10;;;7.40;99.90;;;;;;4865980;29;20485;-83
2022/11/20 00:32:06;;;;;;;6.33;5.90;;;7.10;99.90;;;;;;4863903;29;20486;-81
2022/11/20 00:34:34;;;;;;;5.87;5.57;;;7.00;99.90;;;;;;4864381;29;20461;-84
2022/11/20 00:37:02;;;;;;;5.63;5.33;;;6.80;99.90;;;;;;4865119;29;20533;-84
2022/11/20 00:39:30;;;;;;;5.30;5.00;;;7.00;99.90;;;;;;4863123;29;21064;-84
2022/11/20 00:42:00;;;;;;;5.37;5.07;;;7.20;99.90;;;;;;4862571;29;20673;-84
2022/11/20 00:44:28;;;;;;;5.30;4.90;;;7.10;99.90;;;;;;4861371;29;20497;-82
2022/11/20 00:46:56;;;;;;;5.07;4.87;;;7.00;99.90;;;;;;4862251;29;20480;-82
2022/11/20 00:49:24;;;;;;;5.80;5.43;;;7.20;99.90;;;;;;4863753;29;20823;-82
2022/11/20 00:51:53;;;;;;;5.07;4.87;;;7.10;99.90;;;;;;4866845;29;20486;-83
2022/11/20 00:54:21;;;;;;;5.30;5.10;;;7.10;99.90;;;;;;4864545;29;20533;-83
2022/11/20 00:56:49;;;;;;;5.13;4.83;;;7.00;99.90;;;;;;4863026;29;20453;-82
2022/11/20 00:59:19;;;;;;;4.47;4.37;;;7.10;99.90;;;;;;4863883;29;20609;-84
2022/11/20 01:01:47;;;;;;;4.80;4.60;;;7.20;99.90;;;;;;4864667;29;20573;-83
2022/11/20 01:04:15;;;;;;;4.73;4.53;;;7.30;99.90;;;;;;4860372;29;20458;-83
2022/11/20 01:06:44;;;;;;;4.80;4.60;;;7.20;99.90;;;;;;4861304;29;20459;-80
2022/11/20 01:09:14;;;;;;;4.80;4.47;;;7.10;99.90;;;;;;4861234;29;20531;-83
2022/11/20 01:11:44;;;;;;;5.03;4.73;;;6.90;99.90;;;;;;4863230;29;21152;-85
2022/11/20 01:14:15;;;;;;;4.37;4.23;;;7.00;99.90;;;;;;4872704;29;20513;-84
2022/11/20 01:16:48;;;;;;;5.30;5.00;;;6.90;99.90;;;;;;4862918;29;20474;-84
2022/11/20 01:19:19;;;;;;;4.97;4.77;;;6.80;99.90;;;;;;4866092;29;20909;-84
2022/11/20 01:21:51;;;;;;;5.10;4.77;;;6.80;99.90;;;;;;4859415;29;20580;-84
2022/11/20 01:24:21;;;;;;;4.37;4.17;;;7.00;99.90;;;;;;4861522;29;20469;-83
2022/11/20 01:26:50;;;;;;;4.63;4.43;;;7.00;99.90;;;;;;4863112;29;20458;-83
2022/11/20 01:29:21;;;;;;;4.43;4.33;;;7.00;99.90;;;;;;4862327;29;20494;-84
2022/11/20 01:31:52;;;;;;;5.07;4.67;;;7.00;99.90;;;;;;4863498;29;20486;-85
2022/11/20 01:34:23;;;;;;;4.23;4.00;;;6.80;99.90;;;;;;4861420;29;20469;-84
2022/11/20 01:36:52;;;;;;;4.20;4.10;;;7.00;99.90;;;;;;4860885;29;20494;-84
2022/11/20 01:39:22;;;;;;;4.17;3.97;;;6.90;99.90;;;;;;4865232;29;20816;-85
2022/11/20 01:44:53;;;;;;;4.13;3.93;;;6.80;99.10;;;;;;4859418;29;20482;-85
2022/11/20 01:47:28;;;;;;;4.10;4.00;;;7.00;92.00;;;;;;4861089;29;20482;-84
2022/11/20 01:50:00;;;;;;;4.80;4.60;;;6.80;84.70;;;;;;4860222;29;20973;-84
2022/11/20 01:52:33;;;;;;;4.50;4.40;;;6.80;99.90;;;;;;4863168;29;20541;-84
2022/11/20 01:55:07;;;;;;;4.27;4.10;;;6.90;99.90;;;;;;4864496;29;20454;-84
2022/11/20 01:57:36;;;;;;;4.77;4.30;;;6.90;99.90;;;;;;4866347;29;20471;-84
2022/11/20 02:00:08;;;;;;;4.80;4.50;;;6.80;98.30;;;;;;4861649;29;20470;-85
2022/11/20 02:02:39;;;;;;;4.87;4.63;;;6.70;99.90;;;;;;4863512;29;21027;-84
2022/11/20 02:05:17;;;;;;;4.30;4.00;;;6.70;99.90;;;;;;4857984;29;20470;-84
2022/11/20 02:07:47;;;;;;;4.80;4.23;;;6.70;99.90;;;;;;4873397;29;20458;-81
2022/11/20 02:10:15;;;;;;;4.53;4.33;;;6.60;99.90;;;;;;4861276;29;20995;-82
2022/11/20 02:15:30;;;;;;;3.97;3.87;;;6.50;99.90;;;;;;4861292;29;20569;-83
2022/11/20 02:17:59;;;;;;;4.23;3.93;;;6.50;99.90;;;;;;4861503;29;20517;-83
2022/11/20 02:20:27;;;;;;;4.30;4.10;;;6.40;99.90;;;;;;4859678;29;21007;-83
2022/11/20 02:23:00;;;;;;;3.87;3.67;;;6.40;99.90;;;;;;4858907;29;21050;-83
2022/11/20 02:25:31;;;;;;;4.33;4.17;;;6.50;99.90;;;;;;4866158;29;20519;-84
2022/11/20 02:27:59;;;;;;;4.30;4.10;;;6.30;99.90;;;;;;4861234;29;20503;-83
2022/11/20 02:30:27;;;;;;;4.87;4.67;;;6.40;99.90;;;;;;4862294;29;20463;-83
2022/11/20 02:32:55;;;;;;;4.40;4.20;;;6.40;99.90;;;;;;4862959;29;20490;-84
2022/11/20 02:35:43;;;;;;;4.83;4.53;;;6.40;99.90;;;;;;4865412;29;20989;-83
2022/11/20 02:38:11;;;;;;;5.53;5.23;;;6.40;1.00;;;;;;4864322;29;20938;-83
2022/11/20 02:40:41;;;;;;;5.00;4.80;;;6.50;1.00;;;;;;4869559;29;20482;-83
2022/11/20 02:43:10;;;;;;;6.33;5.73;;;6.30;99.90;;;;;;4862423;29;21067;-82
2022/11/20 02:45:39;;;;;;;5.27;5.07;;;6.40;93.00;;;;;;4868351;29;20475;-83
2022/11/20 02:48:08;;;;;;;5.80;5.40;;;6.40;1.00;;;;;;4862992;29;20981;-83
2022/11/20 02:50:39;;;;;;;6.00;5.60;;;6.60;1.00;;;;;;4865482;29;20469;-85
2022/11/20 02:53:07;;;;;;;5.57;5.23;;;6.70;1.00;;;;;;4865176;29;20492;-84
2022/11/20 02:55:36;;;;;;;5.50;5.20;;;6.70;1.00;;;;;;4869220;29;20549;-85
2022/11/20 02:58:06;;;;;;;5.90;5.60;;;6.60;1.00;;;;;;4863743;29;20468;-84
2022/11/20 03:00:35;;;;;;;6.23;5.93;;;6.60;1.00;;;;;;4863881;29;20542;-84
2022/11/20 03:03:03;;;;;;;6.23;5.70;;;6.60;1.00;;;;;;4862285;29;20499;-85
2022/11/20 03:05:31;;;;;;;6.10;5.70;;;6.60;1.00;;;;;;4865847;29;20505;-85
2022/11/20 03:07:59;;;;;;;6.10;5.70;;;6.60;1.00;;;;;;4866488;29;20508;-85
2022/11/20 03:10:27;;;;;;;5.23;5.03;;;6.60;1.00;;;;;;4863096;29;20492;-85
2022/11/20 03:12:56;;;;;;;5.83;5.53;;;6.70;1.00;;;;;;4863322;29;20525;-84
2022/11/20 03:15:26;;;;;;;6.03;5.57;;;6.40;1.00;;;;;;4867140;29;20461;-82
2022/11/20 03:17:55;;;;;;;5.60;5.40;;;6.50;1.00;;;;;;4863024;29;20464;-85
2022/11/20 03:20:24;;;;;;;6.30;5.80;;;6.40;1.00;;;;;;4862019;29;20469;-84
2022/11/20 03:22:54;;;;;;;6.13;5.73;;;6.40;1.00;;;;;;4863336;29;20495;-83
2022/11/20 03:25:22;;;;;;;5.97;5.60;;;6.40;1.00;;;;;;4867588;29;20496;-81
2022/11/20 03:27:50;;;;;;;6.40;6.00;;;6.40;1.00;;;;;;4861873;29;20478;-84
2022/11/20 03:30:19;;;;;;;5.53;5.33;;;6.40;1.00;;;;;;4858619;29;20498;-82
2022/11/20 03:32:48;;;;;;;6.37;5.87;;;6.40;1.00;;;;;;4852971;29;20525;-83
2022/11/20 03:35:17;;;;;;;5.77;5.43;;;6.40;1.00;;;;;;4856893;29;20456;-83
2022/11/20 03:37:46;;;;;;;5.93;5.63;;;6.40;1.00;;;;;;4859866;29;20983;-84
2022/11/20 03:40:14;;;;;;;6.07;5.67;;;6.30;1.00;;;;;;4857275;29;20475;-83
2022/11/20 03:42:48;;;;;;;5.50;5.20;;;6.30;1.00;;;;;;4855083;29;20489;-83
2022/11/20 03:45:18;;;;;;;5.30;5.00;;;6.30;1.00;;;;;;4858839;29;20976;-84
2022/11/20 03:47:47;;;;;;;4.97;4.77;;;6.30;1.00;;;;;;4854859;29;20554;-83
2022/11/20 03:50:16;;;;;;;5.30;4.97;;;6.20;1.00;;;;;;4863526;29;20484;-84
2022/11/20 03:52:44;;;;;;;5.73;5.17;;;6.10;1.00;;;;;;4861625;29;20489;-84
2022/11/20 03:55:12;;;;;;;9.10;8.03;;;6.20;1.00;;;;;;4859689;29;20482;-84
2022/11/20 03:57:40;;;;;;;6.10;5.70;;;6.20;1.00;;;;;;4855680;29;20826;-83
2022/11/20 04:00:10;;;;;;;5.13;4.77;;;6.20;1.00;;;;;;4860893;29;20461;-83
2022/11/20 04:02:38;;;;;;;5.20;4.80;;;6.20;99.90;;;;;;4861662;29;21212;-84
2022/11/20 04:05:08;;;;;;;5.80;5.37;;;6.30;1.00;;;;;;4864884;29;20994;-84
2022/11/20 04:07:36;;;;;;;6.30;5.90;;;6.40;1.00;;;;;;4862973;29;22153;-83
2022/11/20 04:10:06;;;;;;;5.70;5.33;;;6.40;99.90;;;;;;4863041;29;21311;-83
2022/11/20 04:12:34;;;;;;;6.03;5.60;;;6.40;1.00;;;;;;4874206;29;20495;-83
2022/11/20 04:15:02;;;;;;;6.10;5.70;;;6.20;1.00;;;;;;4864573;29;20465;-83
2022/11/20 04:17:30;;;;;;;5.03;4.83;;;6.40;1.00;;;;;;4867446;29;20804;-84
2022/11/20 04:19:58;;;;;;;5.53;5.23;;;6.40;1.00;;;;;;4865661;29;20492;-83
2022/11/20 04:22:28;;;;;;;5.37;5.13;;;6.40;1.00;;;;;;4864725;29;20498;-83
2022/11/20 04:24:56;;;;;;;4.87;4.67;;;6.50;99.90;;;;;;4865944;29;20464;-82
2022/11/20 04:27:24;;;;;;;5.93;5.27;;;6.50;99.90;;;;;;4863233;29;20484;-83
2022/11/20 04:29:52;;;;;;;5.30;5.00;;;6.40;99.90;;;;;;4863473;29;20512;-83
2022/11/20 04:32:20;;;;;;;5.70;5.30;;;6.30;1.00;;;;;;4862769;29;20978;-83
2022/11/20 04:34:49;;;;;;;5.37;5.07;;;6.30;1.00;;;;;;4863215;29;20476;-83
2022/11/20 04:37:17;;;;;;;6.23;5.83;;;6.30;1.00;;;;;;4862407;29;20569;-83
2022/11/20 04:39:46;;;;;;;5.17;4.87;;;6.30;1.00;;;;;;4862471;29;20468;-83
2022/11/20 04:42:29;;;;;;;5.47;5.27;;;6.30;1.00;;;;;;4863491;29;20484;-82
2022/11/20 04:44:58;;;;;;;6.03;5.73;;;6.40;1.00;;;;;;4862332;29;20464;-82
2022/11/20 04:47:26;;;;;;;5.30;4.83;;;6.40;1.00;;;;;;4864802;29;21822;-83
2022/11/20 04:49:54;;;;;;;5.90;5.60;;;6.40;1.00;;;;;;4860694;29;20500;-82
2022/11/20 04:52:22;;;;;;;5.37;5.17;;;6.40;1.00;;;;;;4858929;29;20487;-82
2022/11/20 04:54:53;;;;;;;5.27;5.07;;;6.30;1.00;;;;;;4877191;29;20572;-83
2022/11/20 04:57:22;;;;;;;5.50;5.20;;;6.30;1.90;;;;;;4861708;29;20455;-81
2022/11/20 04:59:50;;;;;;;5.20;5.00;;;6.40;1.00;;;;;;4862072;29;20456;-82
2022/11/20 05:02:18;;;;;;;5.50;5.00;;;6.30;45.00;;;;;;4860590;29;20492;-81
2022/11/20 05:04:47;;;;;;;6.43;6.10;;;6.30;66.00;;;;;;4861540;29;20535;-82
2022/11/20 05:07:15;;;;;;;5.87;5.57;;;6.20;99.90;;;;;;4858890;29;20752;-79
2022/11/20 05:09:43;;;;;;;5.47;5.17;;;6.40;47.80;;;;;;4860859;29;20480;-80
2022/11/20 05:12:13;;;;;;;5.53;5.03;;;6.40;1.00;;;;;;4862890;29;20486;-81
2022/11/20 05:14:41;;;;;;;5.57;5.27;;;6.40;43.50;;;;;;4860290;29;20476;-82
2022/11/20 05:17:11;;;;;;;5.40;5.00;;;6.60;1.00;;;;;;4869016;29;21013;-80
2022/11/20 05:19:39;;;;;;;6.23;5.80;;;6.40;1.00;;;;;;4866839;29;20460;-81
2022/11/20 05:22:07;;;;;;;5.50;5.00;;;6.50;1.00;;;;;;4859480;29;20483;-82
2022/11/20 05:24:35;;;;;;;5.37;5.17;;;6.40;1.00;;;;;;4864173;29;20464;-80
2022/11/20 05:27:04;;;;;;;5.80;5.50;;;6.30;1.00;;;;;;4859177;29;20472;-81
2022/11/20 05:29:33;;;;;;;5.83;5.37;;;6.30;1.00;;;;;;4859777;29;20543;-81
2022/11/20 05:32:01;;;;;;;5.80;5.50;;;6.40;1.00;;;;;;4859722;29;20504;-82
2022/11/20 05:34:29;;;;;;;5.30;5.00;;;6.40;1.00;;;;;;4861184;29;20468;-81
2022/11/20 05:36:58;;;;;;;5.83;5.43;;;6.50;1.00;;;;;;4858157;29;20489;-82
2022/11/20 05:39:26;;;;;;;5.00;4.83;;;6.50;1.00;;;;;;4859901;29;20524;-81
2022/11/20 05:44:37;;;;;;;6.00;5.53;;;6.40;1.00;;;;;;4859332;29;20539;-82
2022/11/20 05:47:06;;;;;;;4.87;4.67;;;6.50;1.00;;;;;;4859145;29;20460;-80
2022/11/20 05:49:34;;;;;;;4.73;4.53;;;6.50;1.00;;;;;;4865987;29;20563;-82
2022/11/20 05:52:02;;;;;;;6.23;5.83;;;6.50;1.00;;;;;;4860467;29;20482;-82
2022/11/20 05:54:30;;;;;;;5.07;4.87;;;6.50;1.00;;;;;;4859824;29;20991;-82
2022/11/20 05:56:59;;;;;;;5.63;5.33;;;6.50;1.00;;;;;;4861575;29;21307;-82
2022/11/20 05:59:27;;;;;;;5.00;4.80;;;6.60;1.00;;;;;;4856118;29;20827;-81
2022/11/20 06:01:57;;;;;;;4.80;4.60;;;6.60;1.00;;;;;;4863196;29;20556;-81
2022/11/20 06:04:25;;;;;;;5.70;5.40;;;6.60;1.00;;;;;;4873106;29;20564;-83
2022/11/20 06:06:53;;;;;;;5.13;4.83;;;6.60;1.00;;;;;;4860942;29;20525;-81
2022/11/20 06:09:22;;;;;;;6.30;5.30;;;6.60;1.00;;;;;;4860650;29;20965;-83
2022/11/20 06:11:50;;;;;;;5.00;4.80;;;6.50;1.00;;;;;;4878087;29;20498;-81
2022/11/20 06:14:19;;;;;;;5.77;5.57;;;6.50;1.00;;;;;;4862019;29;20462;-82
2022/11/20 06:16:47;;;;;;;5.53;5.23;;;6.50;1.00;;;;;;4864564;29;20581;-83
2022/11/20 06:19:17;;;;;;;5.17;4.97;;;6.40;71.50;;;;;;4861904;29;20467;-82
2022/11/20 06:21:45;;;;;;;5.37;5.10;;;6.40;1.00;;;;;;4860539;29;20488;-81
2022/11/20 06:24:13;;;;;;;5.30;5.10;;;6.40;3.20;;;;;;4861425;29;20472;-83
2022/11/20 06:26:42;;;;;;;5.33;5.10;;;6.50;1.00;;;;;;4858249;29;20495;-83
2022/11/20 06:29:10;;;;;;;5.00;4.77;;;6.50;1.00;;;;;;4858224;29;20469;-83
2022/11/20 06:31:38;;;;;;;5.80;5.40;;;6.50;1.00;;;;;;4859496;29;21018;-81
2022/11/20 06:34:07;;;;;;;5.17;4.87;;;6.60;1.00;;;;;;4861729;29;20480;-83
2022/11/20 06:36:37;;;;;;;4.90;4.70;;;6.50;1.00;;;;;;4864725;29;20447;-81
2022/11/20 06:39:05;;;;;;;5.50;5.20;;;6.60;1.00;;;;;;4862598;29;20458;-83
2022/11/20 06:41:33;;;;;;;5.30;5.10;;;6.70;1.00;;;;;;4863873;29;20987;-83
2022/11/20 06:44:01;;;;;;;5.20;5.00;;;6.70;1.00;;;;;;4864097;29;20476;-83
2022/11/20 06:46:29;;;;;;;4.90;4.80;;;6.60;1.00;;;;;;4861518;29;20851;-82
2022/11/20 06:48:58;;;;;;;5.00;4.80;;;6.60;99.90;;;;;;4865165;29;20486;-83
2022/11/20 06:51:26;;;;;;;5.27;5.07;;;6.70;1.00;;;;;;4862065;29;20527;-79
2022/11/20 06:53:55;;;;;;;5.97;5.67;;;6.70;1.00;;;;;;4860285;29;20477;-81
2022/11/20 06:56:23;;;;;;;5.27;4.97;;;6.60;1.00;;;;;;4877242;29;20472;-80
2022/11/20 06:58:52;;;;;;;5.23;4.93;;;6.60;1.00;;;;;;4861478;29;21112;-80
2022/11/20 07:01:20;;;;;;;5.03;4.70;;;6.70;1.00;;;;;;4864034;29;20481;-81
2022/11/20 07:03:50;;;;;;;4.97;4.77;;;6.70;1.00;;;;;;4870340;29;20459;-81
2022/11/20 07:06:21;;;;;;;4.90;4.70;;;6.70;1.00;;;;;;4865999;29;20460;-81
2022/11/20 07:08:51;;;;;;;5.47;5.17;;;6.70;1.00;;;;;;4864316;29;20492;-81
2022/11/20 07:11:21;;;;;;;5.43;5.13;;;6.70;1.00;;;;;;4863848;29;20567;-80
2022/11/20 07:13:49;;;;;;;4.73;4.63;;;6.80;1.00;;;;;;4864106;29;20464;-82
2022/11/20 07:16:17;;;;;;;4.67;4.57;;;6.90;1.00;;;;;;4863404;29;20468;-82
2022/11/20 07:18:46;;;;;;;4.70;4.50;;;6.90;99.90;;;;;;4861899;29;20473;-79
2022/11/20 07:21:18;;;;;;;4.73;4.53;;;6.90;99.90;;;;;;4861527;29;20452;-79
2022/11/20 07:23:46;;;;;;;5.40;5.20;;;7.00;1.00;;;;;;4865173;29;20468;-78
2022/11/20 07:26:14;;;;;;;5.10;4.90;;;6.90;1.00;;;;;;4866900;29;20847;-82
2022/11/20 07:28:45;;;;;;;5.40;4.90;;;6.90;1.00;;;;;;4871528;29;20468;-81
2022/11/20 07:31:13;;;;;;;4.43;4.33;;;6.80;1.00;;;;;;4865814;29;21048;-81
2022/11/20 07:33:46;;;;;;;4.90;4.70;;;6.80;1.00;;;;;;4870736;29;20456;-81
2022/11/20 07:36:14;;;;;;;4.70;4.60;;;6.90;1.00;;;;;;4867050;29;20475;-80
2022/11/20 07:38:42;;;;;;;4.93;4.73;;;6.90;1.00;;;;;;4872878;29;20459;-82
2022/11/20 07:41:10;;;;;;;5.10;4.90;;;6.90;1.00;;;;;;4867146;29;20507;-82
2022/11/20 07:43:38;;;;;;;4.60;4.50;;;6.90;1.00;;;;;;4870098;29;20804;-83
2022/11/20 07:46:10;;;;;;;5.67;5.37;;;7.00;1.00;;;;;;4869047;29;21601;-83
2022/11/20 07:48:38;;;;;;;6.13;5.83;;;7.10;1.00;;;;;;4872269;29;20464;-82
2022/11/20 07:51:06;;;;;;;4.70;4.60;;;7.30;99.90;;;;;;4870713;29;20501;-84
2022/11/20 07:53:34;;;;;;;5.07;4.80;;;7.20;99.90;;;;;;4872581;29;20506;-84
2022/11/20 07:56:03;;;;;;;4.87;4.70;;;7.20;99.90;;;;;;4880860;29;20987;-84
2022/11/20 07:58:32;;;;;;;5.23;5.07;;;7.30;99.90;;;;;;4874962;29;20468;-83
2022/11/20 08:01:03;;;;;;;6.40;6.00;;;7.20;99.90;;;;;;4872260;29;20510;-81
2022/11/20 08:03:33;;;;;;;5.80;5.53;;;7.30;99.90;;;;;;4872548;29;20560;-82
2022/11/20 08:06:02;;;;;;;5.07;4.87;;;7.30;99.90;;;;;;4874689;29;20477;-84
2022/11/20 08:08:30;;;;;;;5.20;4.90;;;7.40;99.90;;;;;;4876002;29;20459;-84
2022/11/20 08:16:29;;;;;;;5.30;5.10;;;7.40;99.90;;;;;;4868769;29;20550;-83
2022/11/20 08:18:58;;;;;;;5.00;4.83;;;7.40;99.90;;;;;;4872054;29;20464;-83
2022/11/20 08:21:27;;;;;;;5.50;5.30;;;7.40;99.90;;;;;;4868675;29;20564;-84
2022/11/20 08:23:55;;;;;;;5.47;5.17;;;7.40;99.90;;;;;;4866119;29;20524;-84
2022/11/20 08:26:23;;;;;;;5.20;5.03;;;7.40;99.90;;;;;;4865829;29;20477;-84
2022/11/20 08:28:55;;;;;;;5.30;5.10;;;7.40;1.00;;;;;;4870485;29;21057;-84
2022/11/20 08:31:24;;;;;;;5.63;5.40;;;7.50;1.00;;;;;;4869148;29;20581;-84
2022/11/20 08:33:52;;;;;;;5.40;5.20;;;7.50;1.00;;;;;;4865888;29;20876;-82
2022/11/20 08:36:23;;;;;;;5.43;5.00;;;7.40;1.00;;;;;;4869447;29;20526;-84
2022/11/20 08:38:53;;;;;;;5.50;5.30;;;7.40;1.00;;;;;;4872530;29;20538;-83
2022/11/20 08:41:25;;;;;;;5.57;5.37;;;7.30;1.00;;;;;;4869561;29;20530;-84
2022/11/20 08:43:56;;;;;;;6.03;5.80;;;7.30;1.00;;;;;;4868852;29;20445;-83
2022/11/20 08:46:25;;;;;;;6.90;6.50;;;7.40;1.00;;;;;;4869971;29;20498;-83
2022/11/20 08:48:54;;;;;;;5.63;5.43;;;7.40;1.00;;;;;;4870526;29;20954;-84
2022/11/20 08:51:23;;;;;;;6.07;5.87;;;7.40;1.00;;;;;;4882387;29;20496;-84
2022/11/20 08:53:52;;;;;;;5.70;5.50;;;7.40;1.00;;;;;;4875276;29;20461;-84
2022/11/20 08:56:20;;;;;;;5.80;5.50;;;7.40;1.00;;;;;;4868449;29;20457;-85
2022/11/20 08:58:52;;;;;;;6.40;6.23;;;7.40;1.00;;;;;;4869899;29;21021;-83
2022/11/20 09:01:40;;;;;;;6.17;5.97;;;7.50;1.00;;;;;;4867832;29;20473;-83
2022/11/20 09:04:08;;;;;;;5.73;5.53;;;7.50;1.00;;;;;;4872980;29;20465;-82
2022/11/20 09:06:38;;;;;;;5.40;5.27;;;7.50;1.00;;;;;;4876048;29;20473;-83
2022/11/20 09:09:06;;;;;;;6.03;5.83;;;7.50;1.00;;;;;;4875255;29;20512;-85
2022/11/20 09:11:36;;;;;;;5.23;5.13;;;7.50;1.00;;;;;;4869857;29;20479;-84
2022/11/20 09:14:04;;;;;;;5.47;5.27;;;7.50;1.00;;;;;;4866842;29;20495;-84
2022/11/20 09:16:32;;;;;;;5.83;5.63;;;7.50;72.20;;;;;;4870530;29;20464;-83
2022/11/20 09:19:00;;;;;;;5.20;5.10;;;7.50;1.00;;;;;;4872180;29;20463;-83
2022/11/20 09:21:50;;;;;;;5.97;5.77;;;7.50;1.00;;;;;;4871060;29;20478;-83
2022/11/20 09:24:23;;;;;;;5.70;5.40;;;7.40;99.90;;;;;;4872777;29;20454;-82
2022/11/20 09:26:51;;;;;;;5.97;5.77;;;7.40;99.90;;;;;;4875607;29;20518;-82
2022/11/20 09:29:20;;;;;;;4.97;4.87;;;7.40;99.90;;;;;;4875232;29;20475;-83
2022/11/20 09:31:48;;;;;;;5.20;5.10;;;7.40;99.90;;;;;;4871213;29;20644;-83
2022/11/20 09:34:17;;;;;;;5.40;5.20;;;7.40;99.90;;;;;;4869403;29;20965;-83
2022/11/20 09:36:45;;;;;;;7.00;6.70;;;7.40;99.90;;;;;;4867730;29;20513;-83
2022/11/20 09:39:15;;;;;;;6.20;6.00;;;7.50;99.90;;;;;;4875383;29;20494;-82
2022/11/20 09:42:05;;;;;;;5.47;5.37;;;7.60;59.70;;;;;;4876359;29;20465;-83
2022/11/20 09:44:49;;;;;;;5.13;5.03;;;7.40;33.70;;;;;;4876979;29;20821;-83
2022/11/20 09:47:28;;;;;;;4.90;4.80;;;7.50;90.90;;;;;;4872291;29;20487;-83
2022/11/20 09:50:17;;;;;;;5.07;4.97;;;7.50;1.00;;;;;;4869384;29;20537;-83
2022/11/20 09:52:55;;;;;;;4.60;4.50;;;7.40;1.00;;;;;;4871201;29;20503;-83
2022/11/20 09:55:26;;;;;;;5.07;4.97;;;7.40;1.00;;;;;;4874349;29;20566;-83
2022/11/20 09:57:55;;;;;;;5.13;4.93;;;7.50;1.00;;;;;;4870791;29;20915;-83
2022/11/20 10:00:24;;;;;;;5.50;5.30;;;7.40;1.00;;;;;;4873508;29;20468;-83
2022/11/20 10:02:59;;;;;;;4.60;4.50;;;7.30;99.90;;;;;;4874508;29;20903;-84
2022/11/20 10:05:31;;;;;;;4.90;4.80;;;7.30;99.90;;;;;;4880674;29;20498;-82
2022/11/20 10:08:13;;;;;;;5.20;5.10;;;7.30;99.90;;;;;;4873973;29;20474;-82
2022/11/20 10:10:46;;;;;;;5.50;5.40;;;7.30;99.90;;;;;;4871058;29;20494;-82
2022/11/20 10:13:37;;;;;;;5.13;5.03;;;7.20;99.90;;;;;;4874930;29;20484;-83
2022/11/20 10:16:18;;;;;;;6.27;6.17;;;7.40;1.00;;;;;;4871263;29;20480;-82
2022/11/20 10:19:02;;;;;;;5.50;5.40;;;7.40;1.00;;;;;;4873875;29;20453;-82
2022/11/20 10:21:40;;;;;;;5.13;5.03;;;7.40;1.00;;;;;;4873441;29;20465;-83
2022/11/20 10:24:39;;;;;;;5.60;5.50;;;7.20;1.00;;;;;;4868256;29;20467;-85
2022/11/20 10:27:27;;;;;;;5.30;5.20;;;7.40;1.00;;;;;;4867746;29;20558;-84
2022/11/20 10:30:02;;;;;;;7.37;7.07;;;7.40;99.90;;;;;;4874271;29;20455;-82
2022/11/20 10:32:36;;;;;;;6.20;6.03;;;7.40;1.00;;;;;;4870858;29;20575;-82
2022/11/20 10:35:15;;;;;;;5.60;5.50;;;7.50;99.90;;;;;;4870967;29;20452;-83
2022/11/20 10:37:45;;;;;;;6.20;6.00;;;7.40;1.00;;;;;;4868774;29;20477;-83
2022/11/20 10:40:23;;;;;;;6.00;5.80;;;7.50;1.00;;;;;;4873389;29;20569;-82
2022/11/20 10:42:57;;;;;;;5.83;5.73;;;7.60;5.50;;;;;;4876911;29;20481;-83
2022/11/20 10:45:46;;;;;;;6.20;6.00;;;7.60;1.00;;;;;;4873887;29;20984;-83
2022/11/20 10:48:18;;;;;;;6.10;6.00;;;7.60;99.90;;;;;;4866495;29;20522;-83
2022/11/20 10:50:55;;;;;;;6.67;6.47;;;7.50;99.90;;;;;;4873733;29;20464;-82
2022/11/20 10:53:46;;;;;;;7.20;6.90;;;7.60;99.90;;;;;;4863276;29;20980;-87
2022/11/20 10:56:21;;;;;;;6.30;6.20;;;7.50;1.00;;;;;;4875681;29;20471;-83
2022/11/20 10:59:03;;;;;;;6.73;6.63;;;7.60;99.90;;;;;;4874792;29;20455;-85
2022/11/20 11:01:31;;;;;;;6.00;5.90;;;7.60;1.00;;;;;;4876006;29;20500;-82
2022/11/20 11:04:00;;;;;;;6.70;6.40;;;7.70;1.00;;;;;;4872561;29;20516;-84
2022/11/20 11:06:36;;;;;;;6.50;6.30;;;7.70;22.30;;;;;;4877204;29;20460;-83
2022/11/20 11:09:12;;;;;;;6.63;6.43;;;7.80;1.00;;;;;;4870474;29;20453;-87
2022/11/20 11:11:41;;;;;;;6.80;6.70;;;7.80;84.10;;;;;;4873343;29;20449;-85
2022/11/20 11:14:13;;;;;;;7.23;7.03;;;7.80;99.90;;;;;;4871931;29;21008;-82
2022/11/20 11:16:51;;;;;;;7.20;7.00;;;7.90;1.00;;;;;;4872749;29;20454;-85
2022/11/20 11:19:20;;;;;;;8.00;7.70;;;7.90;1.00;;;;;;4875276;29;20464;-86
2022/11/20 11:21:51;;;;;;;9.83;9.23;;;7.90;99.90;;;;;;4866451;29;20545;-84
2022/11/20 11:24:24;;;;;;;8.03;7.80;;;8.10;99.90;;;;;;4873560;29;20461;-85
2022/11/20 11:27:14;;;;;;;7.77;7.57;;;8.30;1.00;;;;;;4868137;29;20545;-84
2022/11/20 11:29:46;;;;;;;7.63;7.40;;;8.20;99.90;;;;;;4871267;29;21693;-84
2022/11/20 11:32:16;;;;;;;8.00;7.80;;;8.30;1.00;;;;;;4872891;29;20490;-82
2022/11/20 11:34:44;;;;;;;7.90;7.70;;;8.50;1.00;;;;;;4870600;29;20563;-84
2022/11/20 11:37:19;;;;;;;7.90;7.60;;;8.80;99.90;;;;;;4871956;29;20506;-84
2022/11/20 11:39:48;;;;;;;8.40;8.20;;;9.10;1.00;;;;;;4870180;29;20455;-85
2022/11/20 11:42:42;;;;;;;8.00;7.80;;;9.40;1.00;;;;;;4875603;29;21006;-84
2022/11/20 11:45:17;;;;;;;8.00;7.80;;;9.70;1.00;;;;;;4871341;29;20565;-83
2022/11/20 11:47:47;;;;;;;8.40;8.20;;;9.90;99.90;;;;;;4876725;29;20459;-83
2022/11/20 11:50:22;;;;;;;8.97;8.67;;;10.10;43.50;;;;;;4872965;29;20495;-83
2022/11/20 11:52:57;;;;;;;9.50;9.20;;;10.20;74.60;;;;;;4868122;29;20495;-82
2022/11/20 11:55:34;;;;;;;8.47;8.27;;;10.40;1.00;;;;;;4868282;29;20907;-81
2022/11/20 11:58:15;;;;;;;7.57;7.27;;;10.40;1.00;;;;;;4871785;29;20526;-81
2022/11/20 12:00:52;;;;;;;7.90;7.60;;;10.50;1.00;;;;;;4872816;29;20455;-83
2022/11/20 12:03:25;;;;;;;6.90;6.73;;;10.60;1.00;;;;;;4870694;29;20494;-84
2022/11/20 12:05:59;;;;;;;7.60;7.20;;;10.70;1.00;;;;;;4869944;29;20464;-82
2022/11/20 12:08:33;;;;;;;6.70;6.50;;;10.80;1.00;;;;;;4875107;29;20515;-83
2022/11/20 12:11:07;;;;;;;5.70;5.50;;;10.90;99.90;;;;;;4874174;29;20516;-81
2022/11/20 12:13:45;;;;;;;5.27;5.10;;;11.00;99.90;;;;;;4873883;29;20524;-82
2022/11/20 12:16:18;;;;;;;5.40;5.20;;;10.80;99.90;;;;;;4866553;29;20452;-82
2022/11/20 12:18:49;;;;;;;5.07;4.97;;;10.90;99.90;;;;;;4872872;29;20468;-84
2022/11/20 12:21:27;;;;;;;5.57;5.37;;;10.70;99.90;;;;;;4875952;29;20665;-84
2022/11/20 12:24:22;;;;;;;4.47;4.27;;;10.50;99.90;;;;;;4870074;29;20466;-82
2022/11/20 12:27:05;;;;;;;4.47;4.27;;;10.20;99.90;;;;;;4872300;29;20997;-83
2022/11/20 12:29:44;;;;;;;4.60;4.40;;;10.00;99.90;;;;;;4875510;29;20546;-84
2022/11/20 12:32:40;;;;;;;4.20;4.10;;;9.90;99.90;;;;;;4866268;29;20488;-85
2022/11/20 12:35:23;;;;;;;4.80;4.50;;;9.80;99.90;;;;;;4872451;29;20483;-82
2022/11/20 12:38:06;;;;;;;4.57;4.27;;;9.90;99.90;;;;;;4878952;29;20838;-83
2022/11/20 12:40:42;;;;;;;4.67;4.47;;;10.10;99.90;;;;;;4870625;29;20487;-83
2022/11/20 12:46:15;;;;;;;4.40;4.20;;;10.30;99.90;;;;;;4878437;29;20482;-81
2022/11/20 12:49:04;;;;;;;4.00;3.90;;;10.20;99.90;;;;;;4871860;29;20457;-83
2022/11/20 12:52:03;;;;;;;3.37;3.27;;;10.00;99.90;;;;;;4868935;29;20467;-83
2022/11/20 12:55:01;;;;;;;4.03;3.93;;;10.00;99.90;;;;;;4874097;29;20483;-85
2022/11/20 12:57:41;;;;;;;4.20;3.97;;;10.10;99.90;;;;;;4867295;29;20475;-81
2022/11/20 13:00:14;;;;;;;3.90;3.80;;;10.30;99.90;;;;;;4864260;29;20459;-82
2022/11/20 13:03:12;;;;;;;4.27;4.13;;;10.50;99.90;;;;;;4862033;29;20496;-85
2022/11/20 13:05:53;;;;;;;4.10;3.90;;;10.70;99.90;;;;;;4868791;29;20475;-82
2022/11/20 13:08:25;;;;;;;4.00;3.67;;;10.60;99.90;;;;;;4880189;29;20878;-83
2022/11/20 13:11:00;;;;;;;3.47;3.37;;;10.50;99.90;;;;;;4871036;29;20468;-83
2022/11/20 13:13:36;;;;;;;4.10;3.90;;;10.50;99.90;;;;;;4871784;29;20475;-84
2022/11/20 13:16:09;;;;;;;3.63;3.43;;;10.50;99.90;;;;;;4867776;29;20463;-84
2022/11/20 13:18:44;;;;;;;3.80;3.70;;;10.40;99.90;;;;;;4872045;29;20868;-83
2022/11/20 13:21:21;;;;;;;3.43;3.33;;;10.50;99.90;;;;;;4870295;29;20555;-84
2022/11/20 13:23:49;;;;;;;3.50;3.40;;;10.50;99.90;;;;;;4869957;29;20996;-85
2022/11/20 13:26:21;;;;;;;2.90;2.80;;;10.40;99.90;;;;;;4871972;29;20475;-83
2022/11/20 13:29:03;;;;;;;3.07;2.87;;;10.30;99.90;;;;;;4870341;29;20519;-84
2022/11/20 13:31:33;;;;;;;3.37;3.20;;;10.20;99.90;;;;;;4872723;29;20475;-85
2022/11/20 13:34:04;;;;;;;3.00;2.90;;;10.00;99.90;;;;;;4868875;29;20518;-83
2022/11/20 13:36:36;;;;;;;2.60;2.40;;;9.90;99.90;;;;;;4875688;29;20467;-85
2022/11/20 13:39:04;;;;;;;3.63;3.43;;;9.80;99.90;;;;;;4868721;29;20507;-83
2022/11/20 13:41:35;;;;;;;3.37;3.27;;;9.80;99.90;;;;;;4870798;29;20534;-84